O Brien, Oregon
Current Conditions -  °F | °C
As of 4:56 PM on Wednesday 26 Nov 2014 (Local Time) from KBOK Reporting Station
Clear Clear  
Wind Chill: 60°   Ceiling: Unl
Heat Index: 60°   Visibility: 10mi
Dew Point: 48°   Wind: 6mph
Humidity: 64%   Direction: 140°SE
Pressure: 30.14"   Gusts: NA
Location:  42.0377°N, 123.721°W
Report Text: KBOK 270056Z AUTO 14005KT 10SM CLR 16/09 A3014 RMK AO2 T01550088 SLP208
Loading
Personal Weather Stations






























Interactive Weather Map New forecast layout! Learn more

10-Day Weather Forecast

Advertisements
Track Severe Weather on mobile